Willow Shade, Kentucky
Current Conditions -  °F | °C
As of 1:15 PM on Sunday 21 Dec 2014 (Local Time) from KGLW Reporting Station
Clear Clear  
Wind Chill: 49°   Ceiling: Unl
Heat Index: 49°   Visibility: 10mi
Dew Point: 28°   Wind: 0mph
Humidity: 45%   Direction: NA
Pressure: 30.13"   Gusts: NA
Location:  36.8758°N, 85.7109°W
Report Text: KGLW 211915Z AUTO 00000KT 10SM CLR 09/M02 A3013 RMK AO2 T00921022
Loading
Personal Weather Stations






























Interactive Weather Map New forecast layout! Learn more

10-Day Weather Forecast

Advertisements
Track Severe Weather on mobile